sensor_id;sensor_type;location;lat;lon;timestamp;P1;durP1;ratioP1;P2;durP2;ratioP2
63836;SDS011;49991;50.518;30.486;2022-08-25T00:00:02;3.20;;;2.90;;
63836;SDS011;49991;50.518;30.486;2022-08-25T00:02:30;3.10;;;2.80;;
63836;SDS011;49991;50.518;30.486;2022-08-25T00:04:57;3.08;;;2.85;;
63836;SDS011;49991;50.518;30.486;2022-08-25T00:07:24;3.88;;;2.90;;
63836;SDS011;49991;50.518;30.486;2022-08-25T00:09:50;3.45;;;2.78;;
63836;SDS011;49991;50.518;30.486;2022-08-25T00:12:18;3.00;;;2.63;;
63836;SDS011;49991;50.518;30.486;2022-08-25T00:14:45;3.00;;;2.80;;
63836;SDS011;49991;50.518;30.486;2022-08-25T00:17:12;3.20;;;2.90;;
63836;SDS011;49991;50.518;30.486;2022-08-25T00:19:38;3.50;;;2.85;;
63836;SDS011;49991;50.518;30.486;2022-08-25T00:22:06;3.90;;;3.17;;
63836;SDS011;49991;50.518;30.486;2022-08-25T00:24:33;3.15;;;2.90;;
63836;SDS011;49991;50.518;30.486;2022-08-25T00:27:00;3.53;;;2.85;;
63836;SDS011;49991;50.518;30.486;2022-08-25T00:29:29;3.53;;;3.03;;
63836;SDS011;49991;50.518;30.486;2022-08-25T00:31:56;2.78;;;2.58;;
63836;SDS011;49991;50.518;30.486;2022-08-25T00:34:24;3.05;;;2.75;;
63836;SDS011;49991;50.518;30.486;2022-08-25T00:36:53;2.95;;;2.53;;
63836;SDS011;49991;50.518;30.486;2022-08-25T00:39:21;2.80;;;2.58;;
63836;SDS011;49991;50.518;30.486;2022-08-25T00:41:49;5.10;;;2.72;;
63836;SDS011;49991;50.518;30.486;2022-08-25T00:44:16;4.72;;;3.22;;
63836;SDS011;49991;50.518;30.486;2022-08-25T00:46:46;3.53;;;2.50;;
63836;SDS011;49991;50.518;30.486;2022-08-25T00:49:16;3.58;;;2.90;;
63836;SDS011;49991;50.518;30.486;2022-08-25T00:51:46;3.20;;;2.95;;
63836;SDS011;49991;50.518;30.486;2022-08-25T00:54:17;2.90;;;2.70;;
63836;SDS011;49991;50.518;30.486;2022-08-25T00:56:47;3.20;;;2.90;;
63836;SDS011;49991;50.518;30.486;2022-08-25T00:59:16;3.55;;;2.60;;
63836;SDS011;49991;50.518;30.486;2022-08-25T01:01:47;3.47;;;2.90;;
63836;SDS011;49991;50.518;30.486;2022-08-25T01:04:15;3.88;;;2.90;;
63836;SDS011;49991;50.518;30.486;2022-08-25T01:06:42;3.10;;;2.80;;
63836;SDS011;49991;50.518;30.486;2022-08-25T01:09:11;3.65;;;2.70;;
63836;SDS011;49991;50.518;30.486;2022-08-25T01:11:39;2.85;;;2.65;;
63836;SDS011;49991;50.518;30.486;2022-08-25T01:14:07;4.15;;;2.75;;
63836;SDS011;49991;50.518;30.486;2022-08-25T01:16:36;3.00;;;2.70;;
63836;SDS011;49991;50.518;30.486;2022-08-25T01:19:06;2.90;;;2.70;;
63836;SDS011;49991;50.518;30.486;2022-08-25T01:21:38;3.28;;;3.00;;
63836;SDS011;49991;50.518;30.486;2022-08-25T01:24:06;6.65;;;3.42;;
63836;SDS011;49991;50.518;30.486;2022-08-25T01:26:36;4.50;;;3.10;;
63836;SDS011;49991;50.518;30.486;2022-08-25T01:29:04;2.50;;;2.30;;
63836;SDS011;49991;50.518;30.486;2022-08-25T01:34:18;3.95;;;2.83;;
63836;SDS011;49991;50.518;30.486;2022-08-25T01:36:47;3.13;;;2.60;;
63836;SDS011;49991;50.518;30.486;2022-08-25T01:39:14;3.03;;;2.55;;
63836;SDS011;49991;50.518;30.486;2022-08-25T01:41:44;2.92;;;2.63;;
63836;SDS011;49991;50.518;30.486;2022-08-25T01:44:20;3.65;;;2.88;;
63836;SDS011;49991;50.518;30.486;2022-08-25T01:46:46;3.25;;;2.80;;
63836;SDS011;49991;50.518;30.486;2022-08-25T01:49:13;2.80;;;2.60;;
63836;SDS011;49991;50.518;30.486;2022-08-25T01:51:41;2.92;;;2.72;;
63836;SDS011;49991;50.518;30.486;2022-08-25T01:54:13;4.07;;;2.90;;
63836;SDS011;49991;50.518;30.486;2022-08-25T01:56:40;3.05;;;2.70;;
63836;SDS011;49991;50.518;30.486;2022-08-25T01:59:06;3.63;;;2.72;;
63836;SDS011;49991;50.518;30.486;2022-08-25T02:01:34;3.70;;;2.60;;
63836;SDS011;49991;50.518;30.486;2022-08-25T02:04:00;3.88;;;2.70;;
63836;SDS011;49991;50.518;30.486;2022-08-25T02:06:30;3.25;;;2.67;;
63836;SDS011;49991;50.518;30.486;2022-08-25T02:08:58;2.85;;;2.65;;
63836;SDS011;49991;50.518;30.486;2022-08-25T02:11:30;3.15;;;2.85;;
63836;SDS011;49991;50.518;30.486;2022-08-25T02:13:57;3.25;;;2.95;;
63836;SDS011;49991;50.518;30.486;2022-08-25T02:16:28;3.63;;;2.58;;
63836;SDS011;49991;50.518;30.486;2022-08-25T02:18:57;4.18;;;2.85;;
63836;SDS011;49991;50.518;30.486;2022-08-25T02:21:25;2.90;;;2.70;;
63836;SDS011;49991;50.518;30.486;2022-08-25T02:23:51;3.47;;;2.40;;
63836;SDS011;49991;50.518;30.486;2022-08-25T02:26:19;4.80;;;2.75;;
63836;SDS011;49991;50.518;30.486;2022-08-25T02:28:48;3.53;;;2.70;;
63836;SDS011;49991;50.518;30.486;2022-08-25T02:31:16;3.15;;;2.47;;
63836;SDS011;49991;50.518;30.486;2022-08-25T02:33:45;2.72;;;2.50;;
63836;SDS011;49991;50.518;30.486;2022-08-25T02:36:12;6.60;;;3.53;;
63836;SDS011;49991;50.518;30.486;2022-08-25T02:38:39;3.55;;;2.60;;
63836;SDS011;49991;50.518;30.486;2022-08-25T02:41:08;4.60;;;2.47;;
63836;SDS011;49991;50.518;30.486;2022-08-25T02:43:37;4.43;;;2.70;;
63836;SDS011;49991;50.518;30.486;2022-08-25T02:46:07;3.97;;;2.78;;
63836;SDS011;49991;50.518;30.486;2022-08-25T02:48:34;2.70;;;2.50;;
63836;SDS011;49991;50.518;30.486;2022-08-25T02:51:02;4.10;;;2.58;;
63836;SDS011;49991;50.518;30.486;2022-08-25T02:53:31;3.28;;;2.80;;
63836;SDS011;49991;50.518;30.486;2022-08-25T02:55:58;3.42;;;2.90;;
63836;SDS011;49991;50.518;30.486;2022-08-25T02:58:25;3.00;;;2.50;;
63836;SDS011;49991;50.518;30.486;2022-08-25T03:00:53;4.88;;;3.05;;
63836;SDS011;49991;50.518;30.486;2022-08-25T03:03:22;4.78;;;2.75;;
63836;SDS011;49991;50.518;30.486;2022-08-25T03:05:49;2.95;;;2.65;;
63836;SDS011;49991;50.518;30.486;2022-08-25T03:08:16;3.10;;;2.80;;
63836;SDS011;49991;50.518;30.486;2022-08-25T03:10:42;3.08;;;2.72;;
63836;SDS011;49991;50.518;30.486;2022-08-25T03:13:09;3.58;;;2.58;;
63836;SDS011;49991;50.518;30.486;2022-08-25T03:15:36;4.55;;;3.45;;
63836;SDS011;49991;50.518;30.486;2022-08-25T03:18:04;5.45;;;3.15;;
63836;SDS011;49991;50.518;30.486;2022-08-25T03:20:32;6.03;;;3.70;;
63836;SDS011;49991;50.518;30.486;2022-08-25T03:23:02;3.80;;;2.88;;
63836;SDS011;49991;50.518;30.486;2022-08-25T03:25:30;4.38;;;2.63;;
63836;SDS011;49991;50.518;30.486;2022-08-25T03:28:14;3.15;;;2.72;;
63836;SDS011;49991;50.518;30.486;2022-08-25T03:30:41;4.78;;;2.80;;
63836;SDS011;49991;50.518;30.486;2022-08-25T03:33:09;4.63;;;3.13;;
63836;SDS011;49991;50.518;30.486;2022-08-25T03:35:38;7.88;;;3.25;;
63836;SDS011;49991;50.518;30.486;2022-08-25T03:38:04;5.30;;;3.22;;
63836;SDS011;49991;50.518;30.486;2022-08-25T03:40:31;4.88;;;3.25;;
63836;SDS011;49991;50.518;30.486;2022-08-25T03:42:58;6.97;;;3.53;;
63836;SDS011;49991;50.518;30.486;2022-08-25T03:45:25;7.25;;;3.88;;
63836;SDS011;49991;50.518;30.486;2022-08-25T03:47:52;8.10;;;3.90;;
63836;SDS011;49991;50.518;30.486;2022-08-25T03:50:19;10.82;;;4.13;;
63836;SDS011;49991;50.518;30.486;2022-08-25T03:52:50;9.77;;;4.15;;
63836;SDS011;49991;50.518;30.486;2022-08-25T03:55:19;6.53;;;4.25;;
63836;SDS011;49991;50.518;30.486;2022-08-25T03:57:47;7.65;;;4.72;;
63836;SDS011;49991;50.518;30.486;2022-08-25T04:00:13;10.13;;;4.40;;
63836;SDS011;49991;50.518;30.486;2022-08-25T04:02:40;10.25;;;4.40;;
63836;SDS011;49991;50.518;30.486;2022-08-25T04:05:08;9.93;;;4.30;;
63836;SDS011;49991;50.518;30.486;2022-08-25T04:07:35;8.57;;;4.30;;
63836;SDS011;49991;50.518;30.486;2022-08-25T04:10:03;11.23;;;5.00;;
63836;SDS011;49991;50.518;30.486;2022-08-25T04:12:30;17.30;;;5.40;;
63836;SDS011;49991;50.518;30.486;2022-08-25T04:14:57;10.57;;;5.00;;
63836;SDS011;49991;50.518;30.486;2022-08-25T04:17:25;15.55;;;5.28;;
63836;SDS011;49991;50.518;30.486;2022-08-25T04:19:52;11.40;;;4.85;;
63836;SDS011;49991;50.518;30.486;2022-08-25T04:22:18;105.88;;;19.55;;
63836;SDS011;49991;50.518;30.486;2022-08-25T04:24:45;81.03;;;19.08;;
63836;SDS011;49991;50.518;30.486;2022-08-25T04:27:13;70.38;;;18.52;;
63836;SDS011;49991;50.518;30.486;2022-08-25T04:29:40;77.65;;;19.65;;
63836;SDS011;49991;50.518;30.486;2022-08-25T04:32:07;83.93;;;19.55;;
63836;SDS011;49991;50.518;30.486;2022-08-25T04:34:33;75.70;;;18.63;;
63836;SDS011;49991;50.518;30.486;2022-08-25T04:37:00;58.47;;;17.63;;
63836;SDS011;49991;50.518;30.486;2022-08-25T04:39:30;47.65;;;14.13;;
63836;SDS011;49991;50.518;30.486;2022-08-25T04:41:57;38.60;;;13.00;;
63836;SDS011;49991;50.518;30.486;2022-08-25T04:44:26;36.05;;;12.90;;
63836;SDS011;49991;50.518;30.486;2022-08-25T04:46:53;32.47;;;11.63;;
63836;SDS011;49991;50.518;30.486;2022-08-25T04:49:19;31.27;;;10.63;;
63836;SDS011;49991;50.518;30.486;2022-08-25T04:51:46;24.13;;;9.73;;
63836;SDS011;49991;50.518;30.486;2022-08-25T04:54:14;21.23;;;9.68;;
63836;SDS011;49991;50.518;30.486;2022-08-25T04:56:45;18.77;;;9.60;;
63836;SDS011;49991;50.518;30.486;2022-08-25T04:59:13;22.58;;;8.20;;
63836;SDS011;49991;50.518;30.486;2022-08-25T05:01:43;19.42;;;8.32;;
63836;SDS011;49991;50.518;30.486;2022-08-25T05:04:12;16.30;;;8.13;;
63836;SDS011;49991;50.518;30.486;2022-08-25T05:06:40;15.82;;;7.78;;
63836;SDS011;49991;50.518;30.486;2022-08-25T05:09:07;14.60;;;7.28;;
63836;SDS011;49991;50.518;30.486;2022-08-25T05:11:34;11.25;;;6.70;;
63836;SDS011;49991;50.518;30.486;2022-08-25T05:14:01;14.00;;;6.45;;
63836;SDS011;49991;50.518;30.486;2022-08-25T05:16:28;15.82;;;6.57;;
63836;SDS011;49991;50.518;30.486;2022-08-25T05:18:57;8.68;;;5.80;;
63836;SDS011;49991;50.518;30.486;2022-08-25T05:21:24;12.13;;;5.85;;
63836;SDS011;49991;50.518;30.486;2022-08-25T05:23:54;10.20;;;6.43;;
63836;SDS011;49991;50.518;30.486;2022-08-25T05:26:22;10.32;;;5.40;;
63836;SDS011;49991;50.518;30.486;2022-08-25T05:28:51;9.30;;;5.50;;
63836;SDS011;49991;50.518;30.486;2022-08-25T05:31:20;9.40;;;5.72;;
63836;SDS011;49991;50.518;30.486;2022-08-25T05:33:48;8.73;;;5.50;;
63836;SDS011;49991;50.518;30.486;2022-08-25T05:36:17;7.90;;;5.45;;
63836;SDS011;49991;50.518;30.486;2022-08-25T05:38:44;8.25;;;5.18;;
63836;SDS011;49991;50.518;30.486;2022-08-25T05:41:12;10.77;;;5.50;;
63836;SDS011;49991;50.518;30.486;2022-08-25T05:43:43;6.65;;;5.15;;
63836;SDS011;49991;50.518;30.486;2022-08-25T05:46:12;9.20;;;5.20;;
63836;SDS011;49991;50.518;30.486;2022-08-25T05:48:39;8.18;;;5.13;;
63836;SDS011;49991;50.518;30.486;2022-08-25T05:51:06;7.93;;;5.45;;
63836;SDS011;49991;50.518;30.486;2022-08-25T05:53:36;6.57;;;4.95;;
63836;SDS011;49991;50.518;30.486;2022-08-25T05:56:04;8.00;;;5.47;;
63836;SDS011;49991;50.518;30.486;2022-08-25T05:58:31;5.63;;;5.13;;
63836;SDS011;49991;50.518;30.486;2022-08-25T06:00:58;7.75;;;4.93;;
63836;SDS011;49991;50.518;30.486;2022-08-25T06:03:47;7.80;;;5.15;;
63836;SDS011;49991;50.518;30.486;2022-08-25T06:06:15;8.23;;;4.90;;
63836;SDS011;49991;50.518;30.486;2022-08-25T06:08:43;6.55;;;4.88;;
63836;SDS011;49991;50.518;30.486;2022-08-25T06:11:10;6.68;;;5.35;;
63836;SDS011;49991;50.518;30.486;2022-08-25T06:13:37;6.25;;;4.50;;
63836;SDS011;49991;50.518;30.486;2022-08-25T06:16:04;7.78;;;5.63;;
63836;SDS011;49991;50.518;30.486;2022-08-25T06:18:32;5.57;;;5.03;;
63836;SDS011;49991;50.518;30.486;2022-08-25T06:20:58;7.43;;;5.35;;
63836;SDS011;49991;50.518;30.486;2022-08-25T06:23:33;8.30;;;5.28;;
63836;SDS011;49991;50.518;30.486;2022-08-25T06:26:01;6.75;;;4.80;;
63836;SDS011;49991;50.518;30.486;2022-08-25T06:28:27;7.28;;;4.95;;
63836;SDS011;49991;50.518;30.486;2022-08-25T06:30:56;6.53;;;4.90;;
63836;SDS011;49991;50.518;30.486;2022-08-25T06:33:23;7.57;;;5.40;;
63836;SDS011;49991;50.518;30.486;2022-08-25T06:35:52;6.10;;;5.05;;
63836;SDS011;49991;50.518;30.486;2022-08-25T06:38:19;7.60;;;5.22;;
63836;SDS011;49991;50.518;30.486;2022-08-25T06:40:46;7.55;;;4.88;;
63836;SDS011;49991;50.518;30.486;2022-08-25T06:43:14;6.25;;;5.05;;
63836;SDS011;49991;50.518;30.486;2022-08-25T06:45:41;8.27;;;5.53;;
63836;SDS011;49991;50.518;30.486;2022-08-25T06:48:08;6.32;;;5.28;;
63836;SDS011;49991;50.518;30.486;2022-08-25T06:50:36;7.10;;;5.93;;
63836;SDS011;49991;50.518;30.486;2022-08-25T06:53:03;6.10;;;5.30;;
63836;SDS011;49991;50.518;30.486;2022-08-25T06:55:30;8.07;;;5.88;;
63836;SDS011;49991;50.518;30.486;2022-08-25T06:57:58;8.65;;;5.57;;
63836;SDS011;49991;50.518;30.486;2022-08-25T07:00:28;7.00;;;5.50;;
63836;SDS011;49991;50.518;30.486;2022-08-25T07:02:55;6.40;;;5.68;;
63836;SDS011;49991;50.518;30.486;2022-08-25T07:05:22;7.80;;;5.30;;
63836;SDS011;49991;50.518;30.486;2022-08-25T07:07:49;5.97;;;5.03;;
63836;SDS011;49991;50.518;30.486;2022-08-25T07:10:16;6.47;;;5.20;;
63836;SDS011;49991;50.518;30.486;2022-08-25T07:12:43;6.63;;;5.38;;
63836;SDS011;49991;50.518;30.486;2022-08-25T07:15:10;8.77;;;5.45;;
63836;SDS011;49991;50.518;30.486;2022-08-25T07:17:38;6.15;;;5.43;;
63836;SDS011;49991;50.518;30.486;2022-08-25T07:20:05;6.55;;;5.28;;
63836;SDS011;49991;50.518;30.486;2022-08-25T07:22:32;6.78;;;4.97;;
63836;SDS011;49991;50.518;30.486;2022-08-25T07:24:58;7.60;;;5.40;;
63836;SDS011;49991;50.518;30.486;2022-08-25T07:27:25;8.07;;;5.32;;
63836;SDS011;49991;50.518;30.486;2022-08-25T07:29:52;7.35;;;4.93;;
63836;SDS011;49991;50.518;30.486;2022-08-25T07:32:19;8.38;;;5.47;;
63836;SDS011;49991;50.518;30.486;2022-08-25T07:34:47;8.07;;;5.40;;
63836;SDS011;49991;50.518;30.486;2022-08-25T07:37:31;9.05;;;5.85;;
63836;SDS011;49991;50.518;30.486;2022-08-25T07:40:00;8.88;;;5.30;;
63836;SDS011;49991;50.518;30.486;2022-08-25T07:42:27;8.18;;;5.97;;
63836;SDS011;49991;50.518;30.486;2022-08-25T07:44:54;7.53;;;5.57;;
63836;SDS011;49991;50.518;30.486;2022-08-25T07:47:21;7.45;;;5.15;;
63836;SDS011;49991;50.518;30.486;2022-08-25T07:49:49;7.13;;;5.65;;
63836;SDS011;49991;50.518;30.486;2022-08-25T07:52:16;7.63;;;5.57;;
63836;SDS011;49991;50.518;30.486;2022-08-25T07:54:43;7.43;;;6.07;;
63836;SDS011;49991;50.518;30.486;2022-08-25T07:57:10;8.07;;;5.70;;
63836;SDS011;49991;50.518;30.486;2022-08-25T07:59:38;6.85;;;5.20;;
63836;SDS011;49991;50.518;30.486;2022-08-25T08:02:06;6.38;;;5.28;;
63836;SDS011;49991;50.518;30.486;2022-08-25T08:04:34;8.65;;;5.68;;
63836;SDS011;49991;50.518;30.486;2022-08-25T08:07:03;5.80;;;5.25;;
63836;SDS011;49991;50.518;30.486;2022-08-25T08:09:30;6.15;;;5.30;;
63836;SDS011;49991;50.518;30.486;2022-08-25T08:11:57;5.80;;;5.30;;
63836;SDS011;49991;50.518;30.486;2022-08-25T08:14:24;8.55;;;5.60;;
63836;SDS011;49991;50.518;30.486;2022-08-25T08:16:51;7.78;;;5.50;;
63836;SDS011;49991;50.518;30.486;2022-08-25T08:19:18;6.00;;;5.40;;
63836;SDS011;49991;50.518;30.486;2022-08-25T08:21:45;5.70;;;5.10;;
63836;SDS011;49991;50.518;30.486;2022-08-25T08:24:14;6.55;;;5.88;;
63836;SDS011;49991;50.518;30.486;2022-08-25T08:26:40;6.80;;;5.18;;
63836;SDS011;49991;50.518;30.486;2022-08-25T08:29:07;5.90;;;5.32;;
63836;SDS011;49991;50.518;30.486;2022-08-25T08:31:34;6.93;;;5.38;;
63836;SDS011;49991;50.518;30.486;2022-08-25T08:34:00;8.38;;;5.63;;
63836;SDS011;49991;50.518;30.486;2022-08-25T08:36:27;7.55;;;5.05;;
63836;SDS011;49991;50.518;30.486;2022-08-25T08:38:54;7.88;;;5.05;;
63836;SDS011;49991;50.518;30.486;2022-08-25T08:41:29;6.38;;;5.18;;
63836;SDS011;49991;50.518;30.486;2022-08-25T08:44:25;6.55;;;5.28;;
63836;SDS011;49991;50.518;30.486;2022-08-25T08:46:58;5.75;;;5.13;;
63836;SDS011;49991;50.518;30.486;2022-08-25T08:49:32;6.22;;;5.63;;
63836;SDS011;49991;50.518;30.486;2022-08-25T08:52:03;7.95;;;5.47;;
63836;SDS011;49991;50.518;30.486;2022-08-25T08:54:33;9.32;;;5.32;;
63836;SDS011;49991;50.518;30.486;2022-08-25T08:57:07;7.03;;;4.85;;
63836;SDS011;49991;50.518;30.486;2022-08-25T08:59:43;6.90;;;5.05;;
63836;SDS011;49991;50.518;30.486;2022-08-25T09:02:15;7.28;;;4.90;;
63836;SDS011;49991;50.518;30.486;2022-08-25T09:04:50;5.47;;;4.97;;
63836;SDS011;49991;50.518;30.486;2022-08-25T09:07:23;5.97;;;4.90;;
63836;SDS011;49991;50.518;30.486;2022-08-25T09:09:53;7.30;;;4.95;;
63836;SDS011;49991;50.518;30.486;2022-08-25T09:12:22;6.05;;;4.85;;
63836;SDS011;49991;50.518;30.486;2022-08-25T09:15:03;6.35;;;5.10;;
63836;SDS011;49991;50.518;30.486;2022-08-25T09:17:41;6.78;;;4.53;;
63836;SDS011;49991;50.518;30.486;2022-08-25T09:23:18;5.03;;;4.53;;
63836;SDS011;49991;50.518;30.486;2022-08-25T09:25:58;4.65;;;4.13;;
63836;SDS011;49991;50.518;30.486;2022-08-25T09:28:31;4.80;;;4.40;;
63836;SDS011;49991;50.518;30.486;2022-08-25T09:31:02;5.85;;;4.53;;
63836;SDS011;49991;50.518;30.486;2022-08-25T09:33:32;5.63;;;4.60;;
63836;SDS011;49991;50.518;30.486;2022-08-25T09:35:59;6.10;;;4.18;;
63836;SDS011;49991;50.518;30.486;2022-08-25T09:38:27;7.70;;;4.82;;
63836;SDS011;49991;50.518;30.486;2022-08-25T09:40:55;126.60;;;23.17;;
63836;SDS011;49991;50.518;30.486;2022-08-25T09:43:29;96.32;;;24.48;;
63836;SDS011;49991;50.518;30.486;2022-08-25T09:45:59;65.97;;;17.65;;
63836;SDS011;49991;50.518;30.486;2022-08-25T09:48:28;49.58;;;14.85;;
63836;SDS011;49991;50.518;30.486;2022-08-25T09:51:08;45.97;;;15.30;;
63836;SDS011;49991;50.518;30.486;2022-08-25T09:53:42;40.38;;;13.85;;
63836;SDS011;49991;50.518;30.486;2022-08-25T09:56:17;43.60;;;13.90;;
63836;SDS011;49991;50.518;30.486;2022-08-25T09:58:47;38.72;;;12.13;;
63836;SDS011;49991;50.518;30.486;2022-08-25T10:01:15;38.58;;;13.35;;
63836;SDS011;49991;50.518;30.486;2022-08-25T10:03:56;42.80;;;13.05;;
63836;SDS011;49991;50.518;30.486;2022-08-25T10:06:26;42.13;;;12.82;;
63836;SDS011;49991;50.518;30.486;2022-08-25T10:08:57;26.77;;;12.43;;
63836;SDS011;49991;50.518;30.486;2022-08-25T10:11:34;33.72;;;12.00;;
63836;SDS011;49991;50.518;30.486;2022-08-25T10:14:14;32.30;;;11.63;;
63836;SDS011;49991;50.518;30.486;2022-08-25T10:16:44;29.45;;;11.45;;
63836;SDS011;49991;50.518;30.486;2022-08-25T10:19:12;22.52;;;10.90;;
63836;SDS011;49991;50.518;30.486;2022-08-25T10:22:01;31.35;;;11.05;;
63836;SDS011;49991;50.518;30.486;2022-08-25T10:24:30;28.63;;;10.65;;
63836;SDS011;49991;50.518;30.486;2022-08-25T10:26:58;27.00;;;11.10;;
63836;SDS011;49991;50.518;30.486;2022-08-25T10:29:32;22.95;;;10.95;;
63836;SDS011;49991;50.518;30.486;2022-08-25T10:32:15;26.33;;;10.38;;
63836;SDS011;49991;50.518;30.486;2022-08-25T10:34:47;23.33;;;9.93;;
63836;SDS011;49991;50.518;30.486;2022-08-25T10:37:18;23.15;;;10.20;;
63836;SDS011;49991;50.518;30.486;2022-08-25T10:39:55;23.33;;;9.52;;
63836;SDS011;49991;50.518;30.486;2022-08-25T10:42:31;25.45;;;9.85;;
63836;SDS011;49991;50.518;30.486;2022-08-25T10:48:14;15.10;;;6.95;;
63836;SDS011;49991;50.518;30.486;2022-08-25T10:50:55;15.35;;;7.10;;
63836;SDS011;49991;50.518;30.486;2022-08-25T10:53:28;12.18;;;6.00;;
63836;SDS011;49991;50.518;30.486;2022-08-25T10:56:07;15.63;;;5.82;;
63836;SDS011;49991;50.518;30.486;2022-08-25T11:01:37;16.85;;;6.25;;
63836;SDS011;49991;50.518;30.486;2022-08-25T11:04:11;11.20;;;5.85;;
63836;SDS011;49991;50.518;30.486;2022-08-25T11:06:41;10.45;;;5.72;;
63836;SDS011;49991;50.518;30.486;2022-08-25T11:09:13;11.88;;;5.60;;
63836;SDS011;49991;50.518;30.486;2022-08-25T11:11:46;9.18;;;5.47;;
63836;SDS011;49991;50.518;30.486;2022-08-25T11:14:19;9.55;;;5.20;;
63836;SDS011;49991;50.518;30.486;2022-08-25T11:16:52;14.07;;;5.63;;
63836;SDS011;49991;50.518;30.486;2022-08-25T11:19:25;9.88;;;5.30;;
63836;SDS011;49991;50.518;30.486;2022-08-25T11:21:58;11.73;;;4.88;;
63836;SDS011;49991;50.518;30.486;2022-08-25T11:24:32;8.40;;;4.88;;
63836;SDS011;49991;50.518;30.486;2022-08-25T11:27:08;10.88;;;5.60;;
63836;SDS011;49991;50.518;30.486;2022-08-25T11:29:50;9.65;;;5.15;;
63836;SDS011;49991;50.518;30.486;2022-08-25T11:32:25;9.77;;;5.00;;
63836;SDS011;49991;50.518;30.486;2022-08-25T11:34:58;6.60;;;4.38;;
63836;SDS011;49991;50.518;30.486;2022-08-25T11:37:26;8.77;;;4.72;;
63836;SDS011;49991;50.518;30.486;2022-08-25T11:40:08;8.02;;;4.57;;
63836;SDS011;49991;50.518;30.486;2022-08-25T11:42:53;10.38;;;4.57;;
63836;SDS011;49991;50.518;30.486;2022-08-25T11:45:47;8.88;;;4.38;;
63836;SDS011;49991;50.518;30.486;2022-08-25T11:48:34;5.40;;;4.32;;
63836;SDS011;49991;50.518;30.486;2022-08-25T11:51:08;6.75;;;4.20;;
63836;SDS011;49991;50.518;30.486;2022-08-25T11:53:36;6.90;;;4.18;;
63836;SDS011;49991;50.518;30.486;2022-08-25T11:56:05;9.52;;;4.60;;
63836;SDS011;49991;50.518;30.486;2022-08-25T11:58:41;6.30;;;3.70;;
63836;SDS011;49991;50.518;30.486;2022-08-25T12:01:11;7.10;;;4.30;;
63836;SDS011;49991;50.518;30.486;2022-08-25T12:03:59;5.93;;;3.88;;
63836;SDS011;49991;50.518;30.486;2022-08-25T12:07:14;8.38;;;3.92;;
63836;SDS011;49991;50.518;30.486;2022-08-25T12:10:10;7.40;;;3.63;;
63836;SDS011;49991;50.518;30.486;2022-08-25T12:12:57;7.30;;;3.90;;
63836;SDS011;49991;50.518;30.486;2022-08-25T12:15:31;5.30;;;3.17;;
63836;SDS011;49991;50.518;30.486;2022-08-25T12:18:07;5.00;;;4.03;;
63836;SDS011;49991;50.518;30.486;2022-08-25T12:23:37;5.28;;;4.03;;
63836;SDS011;49991;50.518;30.486;2022-08-25T12:26:07;4.80;;;3.78;;
63836;SDS011;49991;50.518;30.486;2022-08-25T12:31:35;6.68;;;3.78;;
63836;SDS011;49991;50.518;30.486;2022-08-25T12:34:19;4.70;;;3.22;;
63836;SDS011;49991;50.518;30.486;2022-08-25T12:36:57;4.35;;;3.55;;
63836;SDS011;49991;50.518;30.486;2022-08-25T12:39:28;6.43;;;3.50;;
63836;SDS011;49991;50.518;30.486;2022-08-25T12:41:57;5.18;;;3.50;;
63836;SDS011;49991;50.518;30.486;2022-08-25T12:44:41;4.38;;;3.25;;
63836;SDS011;49991;50.518;30.486;2022-08-25T12:47:25;3.67;;;3.10;;
63836;SDS011;49991;50.518;30.486;2022-08-25T12:53:01;4.43;;;3.20;;
63836;SDS011;49991;50.518;30.486;2022-08-25T12:55:36;4.00;;;3.13;;
63836;SDS011;49991;50.518;30.486;2022-08-25T12:58:05;5.30;;;3.40;;
63836;SDS011;49991;50.518;30.486;2022-08-25T13:00:35;3.92;;;3.33;;
63836;SDS011;49991;50.518;30.486;2022-08-25T13:03:24;3.65;;;3.00;;
63836;SDS011;49991;50.518;30.486;2022-08-25T13:09:08;3.20;;;2.90;;
63836;SDS011;49991;50.518;30.486;2022-08-25T13:11:54;3.55;;;3.25;;
63836;SDS011;49991;50.518;30.486;2022-08-25T13:14:29;3.70;;;3.25;;
63836;SDS011;49991;50.518;30.486;2022-08-25T13:17:02;3.50;;;2.97;;
63836;SDS011;49991;50.518;30.486;2022-08-25T13:19:29;2.83;;;2.63;;
63836;SDS011;49991;50.518;30.486;2022-08-25T13:21:56;3.78;;;2.60;;
63836;SDS011;49991;50.518;30.486;2022-08-25T13:24:28;3.20;;;2.90;;
63836;SDS011;49991;50.518;30.486;2022-08-25T13:26:59;3.08;;;2.83;;
63836;SDS011;49991;50.518;30.486;2022-08-25T13:29:28;3.55;;;3.25;;
63836;SDS011;49991;50.518;30.486;2022-08-25T13:31:58;3.08;;;2.80;;
63836;SDS011;49991;50.518;30.486;2022-08-25T13:34:27;3.15;;;2.85;;
63836;SDS011;49991;50.518;30.486;2022-08-25T13:36:56;5.13;;;2.90;;
63836;SDS011;49991;50.518;30.486;2022-08-25T13:39:50;3.65;;;2.60;;
63836;SDS011;49991;50.518;30.486;2022-08-25T13:42:37;2.97;;;2.78;;
63836;SDS011;49991;50.518;30.486;2022-08-25T13:45:05;3.10;;;2.45;;
63836;SDS011;49991;50.518;30.486;2022-08-25T13:47:34;3.40;;;3.10;;
63836;SDS011;49991;50.518;30.486;2022-08-25T13:50:14;4.38;;;2.90;;
63836;SDS011;49991;50.518;30.486;2022-08-25T13:52:44;4.50;;;3.00;;
63836;SDS011;49991;50.518;30.486;2022-08-25T13:55:19;2.70;;;2.50;;
63836;SDS011;49991;50.518;30.486;2022-08-25T13:57:48;4.05;;;2.80;;
63836;SDS011;49991;50.518;30.486;2022-08-25T14:00:24;3.15;;;2.78;;
63836;SDS011;49991;50.518;30.486;2022-08-25T14:02:58;3.70;;;2.65;;
63836;SDS011;49991;50.518;30.486;2022-08-25T14:05:31;2.90;;;2.70;;
63836;SDS011;49991;50.518;30.486;2022-08-25T14:08:04;2.67;;;2.47;;
63836;SDS011;49991;50.518;30.486;2022-08-25T14:10:35;2.97;;;2.47;;
63836;SDS011;49991;50.518;30.486;2022-08-25T14:13:11;2.95;;;2.70;;
63836;SDS011;49991;50.518;30.486;2022-08-25T14:15:41;2.70;;;2.50;;
63836;SDS011;49991;50.518;30.486;2022-08-25T14:18:11;2.63;;;2.42;;
63836;SDS011;49991;50.518;30.486;2022-08-25T14:20:45;3.63;;;2.90;;
63836;SDS011;49991;50.518;30.486;2022-08-25T14:23:15;2.90;;;2.70;;
63836;SDS011;49991;50.518;30.486;2022-08-25T14:25:45;2.67;;;2.47;;
63836;SDS011;49991;50.518;30.486;2022-08-25T14:28:13;4.35;;;2.60;;
63836;SDS011;49991;50.518;30.486;2022-08-25T14:30:43;2.90;;;2.70;;
63836;SDS011;49991;50.518;30.486;2022-08-25T14:33:14;2.78;;;2.58;;
63836;SDS011;49991;50.518;30.486;2022-08-25T14:35:44;2.72;;;2.53;;
63836;SDS011;49991;50.518;30.486;2022-08-25T14:38:14;2.55;;;2.35;;
63836;SDS011;49991;50.518;30.486;2022-08-25T14:40:42;2.72;;;2.53;;
63836;SDS011;49991;50.518;30.486;2022-08-25T14:43:10;3.53;;;2.70;;
63836;SDS011;49991;50.518;30.486;2022-08-25T14:45:38;3.08;;;2.40;;
63836;SDS011;49991;50.518;30.486;2022-08-25T14:48:09;2.65;;;2.45;;
63836;SDS011;49991;50.518;30.486;2022-08-25T14:50:40;2.85;;;2.55;;
63836;SDS011;49991;50.518;30.486;2022-08-25T14:53:07;2.83;;;2.60;;
63836;SDS011;49991;50.518;30.486;2022-08-25T14:55:35;2.70;;;2.50;;
63836;SDS011;49991;50.518;30.486;2022-08-25T14:58:02;2.60;;;2.40;;
63836;SDS011;49991;50.518;30.486;2022-08-25T15:00:39;2.70;;;2.50;;
63836;SDS011;49991;50.518;30.486;2022-08-25T15:03:10;2.90;;;2.70;;
63836;SDS011;49991;50.518;30.486;2022-08-25T15:05:38;2.60;;;2.40;;
63836;SDS011;49991;50.518;30.486;2022-08-25T15:08:05;2.72;;;2.50;;
63836;SDS011;49991;50.518;30.486;2022-08-25T15:10:50;2.60;;;2.40;;
63836;SDS011;49991;50.518;30.486;2022-08-25T15:13:16;2.80;;;2.60;;